Terminal Aerodrome Forecast
Issued by NWS Duluth, MN

Home | Current Version | Previous Version | Text Only | Print | Product List | Glossary On
Versions: 1 2 3 4 5 6 7 8 9 10 11 12 13 14 15 16 17 18 19 20 21 22 23 24 25 26
000
FTUS43 KDLH 281700 AAE
TAFDLH
TAF AMD
KDLH 281700Z 2817/2912 10011G18KT 4SM -RA BR OVC020
      TEMPO 2817/2820 2SM -RA OVC008
     FM282100 13013KT 3SM -RA BR OVC015
     FM290000 13006KT 3SM -SHRA BR OVC007
     FM290400 30005KT 4SM BR VCSH OVC007=

USA.gov is the U.S. government's official web portal to all federal, state and local government web resources and services.